createdAt,value
2018-04-16T00:00:29.877Z,40.5
2018-04-16T00:01:20.191Z,40.5
2018-04-16T00:02:09.689Z,40.5
2018-04-16T00:03:00.361Z,40.5
2018-04-16T00:03:50.373Z,40.5
2018-04-16T00:04:40.194Z,40.5
2018-04-16T00:05:30.005Z,40.5
2018-04-16T00:06:20.578Z,40.5
2018-04-16T00:07:10.092Z,40.5
2018-04-16T00:08:00.692Z,40.4
2018-04-16T00:08:50.791Z,40.5
2018-04-16T00:09:40.570Z,40.5
2018-04-16T00:10:30.670Z,40.5
2018-04-16T00:11:20.678Z,40.4
2018-04-16T00:12:10.731Z,40.4
2018-04-16T00:13:00.820Z,40.4
2018-04-16T00:13:50.592Z,40.4
2018-04-16T00:14:41.230Z,40.4
2018-04-16T00:15:31.337Z,40.4
2018-04-16T00:16:21.097Z,40.4
2018-04-16T00:17:11.140Z,40.4
2018-04-16T00:18:01.202Z,40.4
2018-04-16T00:18:51.267Z,40.4
2018-04-16T00:19:41.322Z,40.4
2018-04-16T00:20:30.842Z,40.4
2018-04-16T00:21:21.734Z,40.4
2018-04-16T00:22:11.499Z,40.4
2018-04-16T00:23:01.584Z,40.4
2018-04-16T00:23:51.641Z,40.4
2018-04-16T00:24:41.412Z,40.4
2018-04-16T00:25:32.046Z,40.4
2018-04-16T00:26:22.133Z,40.4
2018-04-16T00:27:11.909Z,40.4
2018-04-16T00:28:02.240Z,40.4
2018-04-16T00:28:52.018Z,40.4
2018-04-16T00:29:42.105Z,40.4
2018-04-16T00:30:32.165Z,40.4
2018-04-16T00:31:21.643Z,40.4
2018-04-16T00:32:12.007Z,40.4
2018-04-16T00:33:02.048Z,40.3
2018-04-16T00:33:52.684Z,40.3
2018-04-16T00:34:42.745Z,40.4
2018-04-16T00:35:32.262Z,40.3
2018-04-16T00:36:22.314Z,40.4
2018-04-16T00:37:12.645Z,40.3
2018-04-16T00:38:03.014Z,40.3
2018-04-16T00:38:52.494Z,40.3
2018-04-16T00:39:43.062Z,40.3
2018-04-16T00:40:33.189Z,40.3
2018-04-16T00:41:23.255Z,40.3
2018-04-16T00:42:13.314Z,40.3
2018-04-16T00:43:03.122Z,40.3
2018-04-16T00:43:53.235Z,40.3
2018-04-16T00:44:43.281Z,40.3
2018-04-16T00:45:33.610Z,40.3
2018-04-16T00:46:23.384Z,40.3
2018-04-16T00:47:13.436Z,40.3
2018-04-16T00:48:03.497Z,40.3
2018-04-16T00:48:53.554Z,40.3
2018-04-16T00:49:43.331Z,40.3
2018-04-16T00:50:33.674Z,40.3
2018-04-16T00:51:23.741Z,40.3
2018-04-16T00:52:14.122Z,40.3
2018-04-16T00:53:03.330Z,40.3
2018-04-16T00:53:53.954Z,40.3
2018-04-16T00:54:43.426Z,40.3
2018-04-16T00:55:33.798Z,40.3
2018-04-16T00:56:24.407Z,40.3
2018-04-16T00:57:14.222Z,40.3
2018-04-16T00:58:03.978Z,40.3
2018-04-16T00:58:53.770Z,40.2
2018-04-16T00:59:44.384Z,40.3
2018-04-16T01:00:34.172Z,40.2
2018-04-16T01:01:24.507Z,40.2
2018-04-16T01:02:14.851Z,40.2
2018-04-16T01:03:04.067Z,40.2
2018-04-16T01:03:54.409Z,40.2
2018-04-16T01:04:45.018Z,40.2
2018-04-16T01:05:35.129Z,40.2
2018-04-16T01:06:24.890Z,40.2
2018-04-16T01:07:14.950Z,40.2
2018-04-16T01:08:05.023Z,40.2
2018-04-16T01:08:54.800Z,40.1
2018-04-16T01:09:45.408Z,40.2
2018-04-16T01:10:34.927Z,40.2
2018-04-16T01:11:25.537Z,40.1
2018-04-16T01:12:15.592Z,40.1
2018-04-16T01:13:04.834Z,40.1
2018-04-16T01:13:55.486Z,40.1
2018-04-16T01:14:44.953Z,40.1
2018-04-16T01:15:35.566Z,40.1
2018-04-16T01:16:25.384Z,40.1
2018-04-16T01:17:16.002Z,40.1
2018-04-16T01:18:06.092Z,40.1
2018-04-16T01:18:56.136Z,40.1
2018-04-16T01:19:45.909Z,40.1
2018-04-16T01:20:36.251Z,40.1
2018-04-16T01:21:25.749Z,40.1
2018-04-16T01:22:16.402Z,40.1
2018-04-16T01:23:06.440Z,40.1
2018-04-16T01:23:56.216Z,40.1
2018-04-16T01:24:46.305Z,40.1
2018-04-16T01:25:36.086Z,40.1
2018-04-16T01:26:26.681Z,40.1
2018-04-16T01:27:16.479Z,40.1
2018-04-16T01:28:06.537Z,40.1
2018-04-16T01:28:56.899Z,40.1
2018-04-16T01:29:46.962Z,40.1
2018-04-16T01:30:36.757Z,40.1
2018-04-16T01:31:26.218Z,40.1
2018-04-16T01:32:16.859Z,40.2
2018-04-16T01:33:06.714Z,40.3
2018-04-16T01:33:56.702Z,40.5
2018-04-16T01:34:46.476Z,40.7
2018-04-16T01:35:37.140Z,40.9
2018-04-16T01:36:27.447Z,41.1
2018-04-16T01:37:16.409Z,41.3
2018-04-16T01:38:07.024Z,41.6
2018-04-16T01:38:57.645Z,41.8
2018-04-16T01:39:47.204Z,42.1
2018-04-16T01:40:37.217Z,42.3
2018-04-16T01:41:27.844Z,42.5
2018-04-16T01:42:17.618Z,42.8
2018-04-16T01:43:07.676Z,43
2018-04-16T01:43:58.001Z,43.3
2018-04-16T01:44:48.077Z,43.5
2018-04-16T01:45:37.888Z,43.7
2018-04-16T01:46:28.204Z,44
2018-04-16T01:47:17.732Z,44.3
2018-04-16T01:48:08.051Z,44.5
2018-04-16T01:48:58.119Z,44.7
2018-04-16T01:49:48.472Z,44.9
2018-04-16T01:50:38.232Z,45.2
2018-04-16T01:51:28.302Z,45.4
2018-04-16T01:52:18.645Z,45.7
2018-04-16T01:53:08.441Z,45.9
2018-04-16T01:53:58.501Z,46.1
2018-04-16T01:54:48.841Z,46.4
2018-04-16T01:55:38.885Z,46.7
2018-04-16T01:56:28.747Z,46.9
2018-04-16T01:57:18.774Z,47.1
2018-04-16T01:58:09.111Z,47.4
2018-04-16T01:58:58.596Z,47.6
2018-04-16T01:59:49.254Z,47.9
2018-04-16T02:00:39.011Z,48.1
2018-04-16T02:01:29.378Z,48.4
2018-04-16T02:02:19.417Z,48.6
2018-04-16T02:03:09.229Z,48.9
2018-04-16T02:03:59.539Z,49.1
2018-04-16T02:04:49.625Z,49.4
2018-04-16T02:05:39.382Z,49.6
2018-04-16T02:06:29.208Z,49.8
2018-04-16T02:07:19.554Z,50.1
2018-04-16T02:08:09.854Z,50.3
2018-04-16T02:08:59.915Z,50.6
2018-04-16T02:09:48.862Z,50.8
2018-04-16T02:10:39.215Z,51
2018-04-16T02:11:30.320Z,51.3
2018-04-16T02:12:20.214Z,51.5
2018-04-16T02:13:09.111Z,51.8
2018-04-16T02:14:00.061Z,52
2018-04-16T02:14:50.089Z,52.3
2018-04-16T02:15:40.438Z,52.4
2018-04-16T02:16:30.205Z,52.7
2018-04-16T02:17:20.247Z,52.9
2018-04-16T02:18:09.793Z,53.2
2018-04-16T02:19:00.147Z,53.4
2018-04-16T02:19:50.740Z,53.6
2018-04-16T02:20:40.811Z,53.8
2018-04-16T02:21:30.612Z,54.1
2018-04-16T02:22:20.939Z,54.3
2018-04-16T02:23:11.015Z,54.6
2018-04-16T02:24:01.064Z,54.8
2018-04-16T02:24:50.869Z,55.1
2018-04-16T02:25:41.217Z,55.3
2018-04-16T02:26:30.697Z,55.5
2018-04-16T02:27:21.332Z,55.8
2018-04-16T02:28:11.119Z,55.9
2018-04-16T02:29:01.477Z,56.2
2018-04-16T02:29:50.984Z,56.4
2018-04-16T02:30:41.023Z,56.7
2018-04-16T02:31:31.097Z,56.9
2018-04-16T02:32:21.430Z,57.1
2018-04-16T02:33:11.780Z,57.1
2018-04-16T02:34:01.843Z,57.2
2018-04-16T02:34:51.901Z,57.3
2018-04-16T02:35:41.709Z,57.3
2018-04-16T02:36:31.740Z,57.4
2018-04-16T02:37:22.127Z,57.4
2018-04-16T02:38:11.863Z,57.4
2018-04-16T02:39:01.928Z,57.4
2018-04-16T02:39:52.016Z,57.5
2018-04-16T02:40:41.811Z,57.5
2018-04-16T02:41:32.180Z,57.5
2018-04-16T02:42:22.253Z,57.5
2018-04-16T02:43:12.293Z,57.5
2018-04-16T02:44:02.642Z,57.5
2018-04-16T02:44:52.656Z,57.5
2018-04-16T02:45:42.443Z,57.5
2018-04-16T02:46:32.804Z,57.4
2018-04-16T02:47:22.002Z,57.5
2018-04-16T02:48:12.659Z,57.5
2018-04-16T02:49:03.016Z,57.5
2018-04-16T02:49:53.043Z,57.5
2018-04-16T02:50:43.109Z,57.4
2018-04-16T02:51:32.885Z,57.4
2018-04-16T02:52:22.965Z,57.4
2018-04-16T02:53:13.306Z,57.4
2018-04-16T02:54:02.805Z,57.4
2018-04-16T02:54:53.155Z,57.4
2018-04-16T02:55:43.568Z,57.4
2018-04-16T02:56:32.988Z,57.4
2018-04-16T02:57:23.617Z,57.4
2018-04-16T02:58:13.675Z,57.4
2018-04-16T02:59:03.485Z,57.4
2018-04-16T02:59:53.796Z,57.4
2018-04-16T03:00:43.594Z,57.4
2018-04-16T03:01:33.926Z,57.4
2018-04-16T03:02:24.006Z,57.4
2018-04-16T03:03:13.810Z,57.4
2018-04-16T03:04:03.610Z,57.3
2018-04-16T03:04:53.636Z,57.3
2018-04-16T03:05:43.971Z,57.3
2018-04-16T03:06:34.018Z,57.3
2018-04-16T03:07:24.383Z,57.3
2018-04-16T03:08:14.428Z,57.3
2018-04-16T03:09:04.247Z,57.3
2018-04-16T03:09:54.558Z,57.3
2018-04-16T03:10:44.349Z,57.3
2018-04-16T03:11:34.712Z,57.3
2018-04-16T03:12:24.489Z,57.3
2018-04-16T03:13:14.544Z,57.3
2018-04-16T03:14:04.614Z,57.3
2018-04-16T03:14:54.951Z,57.3
2018-04-16T03:15:44.164Z,57.3
2018-04-16T03:16:34.808Z,57.2
2018-04-16T03:17:24.298Z,57.2
2018-04-16T03:18:15.216Z,57.2
2018-04-16T03:19:05.044Z,57.2
2018-04-16T03:19:55.333Z,57.2
2018-04-16T03:20:45.364Z,57.2
2018-04-16T03:21:34.913Z,57.2
2018-04-16T03:22:25.516Z,57.1
2018-04-16T03:23:15.360Z,57.1
2018-04-16T03:24:05.628Z,57.1
2018-04-16T03:24:55.404Z,57.1
2018-04-16T03:25:46.033Z,57.1
2018-04-16T03:26:34.992Z,57.1
2018-04-16T03:27:25.351Z,57.1
2018-04-16T03:28:15.670Z,57.1
2018-04-16T03:29:05.455Z,57.1
2018-04-16T03:29:55.837Z,57.1
2018-04-16T03:30:45.936Z,57.1
2018-04-16T03:31:35.946Z,57.1
2018-04-16T03:32:26.013Z,57.1
2018-04-16T03:33:16.056Z,57.1
2018-04-16T03:34:06.141Z,57.1
2018-04-16T03:34:55.619Z,57.1
2018-04-16T03:35:46.543Z,57.1
2018-04-16T03:36:36.621Z,57
2018-04-16T03:37:26.406Z,57
2018-04-16T03:38:16.454Z,57
2018-04-16T03:39:06.840Z,57
2018-04-16T03:39:56.567Z,57
2018-04-16T03:40:46.906Z,57
2018-04-16T03:41:36.138Z,57
2018-04-16T03:42:27.036Z,57
2018-04-16T03:43:16.502Z,57
2018-04-16T03:44:06.603Z,56.9
2018-04-16T03:44:57.261Z,56.9
2018-04-16T03:45:47.106Z,56.9
2018-04-16T03:46:37.155Z,56.9
2018-04-16T03:47:27.168Z,56.9
2018-04-16T03:48:16.925Z,56.9
2018-04-16T03:49:07.290Z,56.9
2018-04-16T03:49:57.363Z,56.9
2018-04-16T03:50:47.661Z,56.9
2018-04-16T03:51:37.738Z,56.9
2018-04-16T03:52:27.827Z,56.9
2018-04-16T03:53:17.578Z,56.9
2018-04-16T03:54:07.934Z,56.9
2018-04-16T03:54:57.720Z,56.9
2018-04-16T03:55:47.487Z,56.8
2018-04-16T03:56:37.855Z,56.9
2018-04-16T03:57:28.172Z,56.8
2018-04-16T03:58:17.975Z,56.8
2018-04-16T03:59:08.316Z,56.8
2018-04-16T03:59:58.380Z,56.8
2018-04-16T04:00:47.872Z,56.8
2018-04-16T04:01:37.950Z,56.8
2018-04-16T04:02:28.331Z,56.8
2018-04-16T04:03:18.073Z,56.8
2018-04-16T04:04:08.703Z,56.8
2018-04-16T04:04:58.186Z,56.8
2018-04-16T04:05:48.508Z,56.8
2018-04-16T04:06:38.316Z,56.8
2018-04-16T04:07:28.648Z,56.8
2018-04-16T04:08:18.723Z,56.8
2018-04-16T04:09:08.951Z,56.8
2018-04-16T04:09:59.120Z,56.8
2018-04-16T04:10:48.628Z,56.8
2018-04-16T04:11:39.254Z,56.7
2018-04-16T04:12:29.070Z,56.7
2018-04-16T04:13:18.813Z,56.7
2018-04-16T04:14:09.513Z,56.7
2018-04-16T04:14:59.527Z,56.7
2018-04-16T04:15:49.568Z,56.7
2018-04-16T04:16:39.623Z,56.7
2018-04-16T04:17:29.726Z,56.6
2018-04-16T04:18:19.228Z,56.6
2018-04-16T04:19:09.797Z,56.6
2018-04-16T04:19:59.902Z,56.6
2018-04-16T04:20:49.958Z,56.6
2018-04-16T04:21:39.157Z,56.6
2018-04-16T04:22:30.079Z,56.6
2018-04-16T04:23:19.589Z,56.6
2018-04-16T04:24:10.191Z,56.6
2018-04-16T04:25:00.702Z,56.6
2018-04-16T04:25:49.743Z,56.6
2018-04-16T04:26:40.117Z,56.6
2018-04-16T04:27:29.598Z,56.6
2018-04-16T04:28:20.226Z,56.6
2018-04-16T04:29:10.566Z,56.6
2018-04-16T04:30:00.647Z,56.6
2018-04-16T04:30:50.703Z,56.6
2018-04-16T04:31:40.472Z,56.6
2018-04-16T04:32:30.528Z,56.5
2018-04-16T04:33:20.638Z,56.5
2018-04-16T04:34:10.657Z,56.5
2018-04-16T04:35:01.004Z,56.5
2018-04-16T04:35:51.091Z,56.5
2018-04-16T04:36:41.187Z,56.5
2018-04-16T04:37:31.296Z,56.5
2018-04-16T04:38:21.019Z,56.5
2018-04-16T04:39:11.408Z,56.4
2018-04-16T04:40:01.388Z,56.4
2018-04-16T04:40:51.483Z,56.4
2018-04-16T04:41:40.663Z,56.4
2018-04-16T04:42:31.558Z,56.4
2018-04-16T04:43:21.378Z,56.4
2018-04-16T04:44:11.467Z,56.4
2018-04-16T04:45:01.781Z,56.4
2018-04-16T04:45:51.843Z,56.4
2018-04-16T04:46:41.381Z,56.4
2018-04-16T04:47:31.712Z,56.4
2018-04-16T04:48:22.000Z,56.4
2018-04-16T04:49:12.072Z,56.3
2018-04-16T04:50:02.135Z,56.3
2018-04-16T04:50:51.950Z,56.3
2018-04-16T04:51:41.994Z,56.3
2018-04-16T04:52:32.039Z,56.1
2018-04-16T04:53:22.416Z,56.1
2018-04-16T04:54:12.454Z,56
2018-04-16T04:55:02.241Z,55.9
2018-04-16T04:55:52.030Z,55.9
2018-04-16T04:56:42.377Z,55.9
2018-04-16T04:57:31.968Z,55.9
2018-04-16T04:58:22.821Z,55.9
2018-04-16T04:59:12.294Z,55.9
2018-04-16T05:00:02.929Z,55.9
2018-04-16T05:00:52.679Z,55.8
2018-04-16T05:01:42.485Z,55.8
2018-04-16T05:02:32.545Z,55.8
2018-04-16T05:03:22.886Z,55.8
2018-04-16T05:04:13.240Z,55.8
2018-04-16T05:05:03.269Z,55.8
2018-04-16T05:05:52.771Z,55.8
2018-04-16T05:06:43.436Z,55.7
2018-04-16T05:07:33.470Z,55.7
2018-04-16T05:08:23.246Z,55.7
2018-04-16T05:09:13.589Z,55.6
2018-04-16T05:10:03.390Z,55.6
2018-04-16T05:10:53.480Z,55.6
2018-04-16T05:11:43.239Z,55.6
2018-04-16T05:12:33.866Z,55.6
2018-04-16T05:13:23.946Z,55.5
2018-04-16T05:14:13.136Z,55.5
2018-04-16T05:15:04.055Z,55.5
2018-04-16T05:15:54.103Z,55.4
2018-04-16T05:16:43.874Z,55.4
2018-04-16T05:17:34.220Z,55.4
2018-04-16T05:18:24.276Z,55.4
2018-04-16T05:19:14.076Z,55.4
2018-04-16T05:20:04.428Z,55.3
2018-04-16T05:20:54.518Z,55.3
2018-04-16T05:21:44.225Z,55.3
2018-04-16T05:22:34.044Z,55.3
2018-04-16T05:23:24.394Z,55.2
2018-04-16T05:24:14.160Z,55.2
2018-04-16T05:25:04.796Z,55.1
2018-04-16T05:25:54.859Z,55.1
2018-04-16T05:26:44.924Z,55.1
2018-04-16T05:27:35.002Z,55.1
2018-04-16T05:28:24.818Z,55.1
2018-04-16T05:29:15.103Z,55
2018-04-16T05:30:05.181Z,54.9
2018-04-16T05:30:54.939Z,54.9
2018-04-16T05:31:45.317Z,54.9
2018-04-16T05:32:35.562Z,54.9
2018-04-16T05:33:25.414Z,54.8
2018-04-16T05:34:15.186Z,54.8
2018-04-16T05:35:05.577Z,54.8
2018-04-16T05:35:55.060Z,54.8
2018-04-16T05:36:45.429Z,54.7
2018-04-16T05:37:35.443Z,54.7
2018-04-16T05:38:24.962Z,54.6
2018-04-16T05:39:15.589Z,54.6
2018-04-16T05:40:05.910Z,54.6
2018-04-16T05:40:55.409Z,54.5
2018-04-16T05:41:46.054Z,54.5
2018-04-16T05:42:36.318Z,54.4
2018-04-16T05:43:26.186Z,54.4
2018-04-16T05:44:15.644Z,54.4
2018-04-16T05:45:05.724Z,54.3
2018-04-16T05:45:56.083Z,54.3
2018-04-16T05:46:46.458Z,54.3
2018-04-16T05:47:36.233Z,54.3
2018-04-16T05:48:26.264Z,54.3
2018-04-16T05:49:16.501Z,54.2
2018-04-16T05:50:06.414Z,54.2
2018-04-16T05:50:56.746Z,54.1
2018-04-16T05:51:46.815Z,54.1
2018-04-16T05:52:36.866Z,54.1
2018-04-16T05:53:26.655Z,54.1
2018-04-16T05:54:16.466Z,54
2018-04-16T05:55:07.090Z,54
2018-04-16T05:55:56.833Z,53.9
2018-04-16T05:56:46.339Z,53.9
2018-04-16T05:57:36.660Z,53.9
2018-04-16T05:58:27.313Z,53.9
2018-04-16T05:59:17.083Z,53.8
2018-04-16T06:00:07.170Z,53.8
2018-04-16T06:00:57.508Z,53.8
2018-04-16T06:01:46.792Z,53.8
2018-04-16T06:02:37.356Z,53.7
2018-04-16T06:03:27.393Z,53.7
2018-04-16T06:04:16.897Z,53.6
2018-04-16T06:05:07.010Z,53.6
2018-04-16T06:05:57.640Z,53.6
2018-04-16T06:06:47.948Z,53.6
2018-04-16T06:07:37.421Z,53.6
2018-04-16T06:08:27.501Z,53.5
2018-04-16T06:09:17.567Z,53.5
2018-04-16T06:10:07.942Z,53.4
2018-04-16T06:10:58.278Z,53.4
2018-04-16T06:11:47.758Z,53.4
2018-04-16T06:12:37.629Z,53.4
2018-04-16T06:13:28.145Z,53.4
2018-04-16T06:14:18.217Z,53.3
2018-04-16T06:15:07.700Z,53.3
2018-04-16T06:15:58.637Z,53.3
2018-04-16T06:16:47.965Z,53.3
2018-04-16T06:17:38.793Z,53.3
2018-04-16T06:18:28.247Z,53.2
2018-04-16T06:19:18.341Z,53.1
2018-04-16T06:20:08.684Z,53.1
2018-04-16T06:20:58.717Z,53.1
2018-04-16T06:21:48.517Z,53.1
2018-04-16T06:22:38.844Z,53.1
2018-04-16T06:23:28.627Z,53
2018-04-16T06:24:18.684Z,53
2018-04-16T06:25:09.346Z,52.9
2018-04-16T06:25:59.094Z,52.9
2018-04-16T06:26:49.194Z,52.9
2018-04-16T06:27:38.640Z,52.9
2018-04-16T06:28:29.286Z,52.9
2018-04-16T06:29:19.051Z,52.9
2018-04-16T06:30:08.928Z,52.8
2018-04-16T06:30:59.739Z,52.8
2018-04-16T06:31:49.340Z,52.8
2018-04-16T06:32:39.584Z,52.8
2018-04-16T06:33:29.936Z,52.8
2018-04-16T06:34:20.048Z,52.8
2018-04-16T06:35:10.060Z,52.7
2018-04-16T06:35:59.826Z,52.7
2018-04-16T06:36:50.494Z,52.6
2018-04-16T06:37:40.230Z,52.6
2018-04-16T06:38:30.292Z,52.6
2018-04-16T06:39:19.529Z,52.6
2018-04-16T06:40:10.435Z,52.6
2018-04-16T06:41:00.495Z,52.5
2018-04-16T06:41:50.300Z,52.5
2018-04-16T06:42:40.617Z,52.5
2018-04-16T06:43:29.824Z,52.4
2018-04-16T06:44:20.487Z,52.4
2018-04-16T06:45:10.807Z,52.4
2018-04-16T06:46:00.927Z,52.4
2018-04-16T06:48:31.084Z,52.3
2018-04-16T06:49:20.572Z,52.3
2018-04-16T06:50:10.909Z,52.3
2018-04-16T06:51:01.245Z,52.3
2018-04-16T06:51:50.476Z,52.3
2018-04-16T06:52:40.928Z,52.3
2018-04-16T06:53:31.438Z,52.2
2018-04-16T06:54:21.234Z,52.2
2018-04-16T06:55:11.554Z,52.2
2018-04-16T06:56:01.344Z,52.1
2018-04-16T06:56:51.685Z,52.1
2018-04-16T06:57:41.184Z,52.1
2018-04-16T06:58:30.984Z,52.1
2018-04-16T06:59:21.952Z,52.1
2018-04-16T07:00:12.041Z,52.1
2018-04-16T07:01:02.167Z,52
2018-04-16T07:01:51.503Z,52
2018-04-16T07:02:41.629Z,52
2018-04-16T07:03:32.240Z,52
2018-04-16T07:06:51.888Z,51.9
2018-04-16T07:07:42.303Z,51.9
2018-04-16T07:08:32.394Z,51.9
2018-04-16T07:09:21.810Z,51.8
2018-04-16T07:10:12.852Z,51.8
2018-04-16T07:11:02.572Z,51.8
2018-04-16T07:11:52.844Z,51.8
2018-04-16T07:12:42.311Z,51.8
2018-04-16T07:13:32.364Z,51.8
2018-04-16T07:14:23.036Z,51.7
2018-04-16T07:15:12.520Z,51.7
2018-04-16T07:16:03.559Z,51.7
2018-04-16T07:16:52.917Z,51.7
2018-04-16T07:17:42.777Z,51.6
2018-04-16T07:18:32.768Z,51.6
2018-04-16T07:19:22.572Z,51.6
2018-04-16T07:20:12.898Z,51.6
2018-04-16T07:21:03.529Z,51.6
2018-04-16T07:21:53.031Z,51.6
2018-04-16T07:22:43.655Z,51.5
2018-04-16T07:23:33.470Z,51.5
2018-04-16T07:24:23.602Z,51.5
2018-04-16T07:25:13.262Z,51.5
2018-04-16T07:26:03.894Z,51.4
2018-04-16T07:26:53.701Z,51.4
2018-04-16T07:27:43.566Z,51.4
2018-04-16T07:28:33.504Z,51.4
2018-04-16T07:29:23.101Z,51.4
2018-04-16T07:30:13.924Z,51.4
2018-04-16T07:31:03.711Z,51.4
2018-04-16T07:31:54.053Z,51.4
2018-04-16T07:32:44.135Z,51.3
2018-04-16T07:33:34.104Z,51.3
2018-04-16T07:34:24.252Z,51.3
2018-04-16T07:35:14.576Z,51.3
2018-04-16T07:36:04.158Z,51.3
2018-04-16T07:36:53.849Z,51.3
2018-04-16T07:37:44.778Z,51.2
2018-04-16T07:38:34.808Z,51.2
2018-04-16T07:39:24.591Z,51.2
2018-04-16T07:40:15.016Z,51.2
2018-04-16T07:41:04.453Z,51.2
2018-04-16T07:41:54.533Z,51.1
2018-04-16T07:42:44.893Z,51.1
2018-04-16T07:43:34.916Z,51.1
2018-04-16T07:44:24.434Z,51.1
2018-04-16T07:45:15.065Z,51.1
2018-04-16T07:46:05.370Z,51.1
2018-04-16T07:46:54.921Z,51.1
2018-04-16T07:47:44.666Z,51
2018-04-16T07:48:35.593Z,51
2018-04-16T07:49:25.189Z,51
2018-04-16T07:50:15.434Z,50.9
2018-04-16T07:51:05.784Z,50.9
2018-04-16T07:51:55.602Z,50.9
2018-04-16T07:52:45.612Z,50.9
2018-04-16T07:53:34.943Z,50.9
2018-04-16T07:54:25.197Z,50.9
2018-04-16T07:55:16.077Z,50.9
2018-04-16T07:56:06.147Z,50.9
2018-04-16T07:56:55.645Z,50.9
2018-04-16T07:57:46.295Z,50.8
2018-04-16T07:58:36.352Z,50.8
2018-04-16T07:59:26.184Z,50.8
2018-04-16T08:00:16.204Z,50.8
2018-04-16T08:01:05.758Z,50.8
2018-04-16T08:01:55.529Z,50.8
2018-04-16T08:02:45.362Z,50.8
2018-04-16T08:03:36.266Z,50.8
2018-04-16T08:04:26.485Z,50.7
2018-04-16T08:05:16.557Z,50.7
2018-04-16T08:06:06.898Z,50.7
2018-04-16T08:06:56.401Z,50.7
2018-04-16T08:07:46.750Z,50.6
2018-04-16T08:08:37.118Z,50.6
2018-04-16T08:09:26.865Z,50.6
2018-04-16T08:10:16.913Z,50.6
2018-04-16T08:11:07.018Z,50.6
2018-04-16T08:11:57.362Z,50.6
2018-04-16T08:12:46.855Z,50.6
2018-04-16T08:13:36.925Z,50.5
2018-04-16T08:14:26.983Z,50.5
2018-04-16T08:15:17.023Z,50.5
2018-04-16T08:16:07.957Z,50.5
2018-04-16T08:16:57.735Z,50.4
2018-04-16T08:17:46.951Z,50.4
2018-04-16T08:18:37.286Z,50.4
2018-04-16T08:19:27.961Z,50.4
2018-04-16T08:20:17.386Z,50.4
2018-04-16T08:21:08.022Z,50.4
2018-04-16T08:21:58.081Z,50.4
2018-04-16T08:22:48.156Z,50.4
2018-04-16T08:23:38.215Z,50.4
2018-04-16T08:24:27.738Z,50.4
2018-04-16T08:25:18.365Z,50.3
2018-04-16T08:26:08.405Z,50.3
2018-04-16T08:26:58.529Z,50.3
2018-04-16T08:27:48.535Z,50.3
2018-04-16T08:28:38.327Z,50.3
2018-04-16T08:29:28.108Z,50.3
2018-04-16T08:30:18.718Z,50.3
2018-04-16T08:31:08.775Z,50.3
2018-04-16T08:31:58.875Z,50.2
2018-04-16T08:32:48.903Z,50.2
2018-04-16T08:33:38.983Z,50.2
2018-04-16T08:34:28.505Z,50.2
2018-04-16T08:35:18.829Z,50.2
2018-04-16T08:36:08.752Z,50.1
2018-04-16T08:36:58.952Z,50.1
2018-04-16T08:37:49.267Z,50.1
2018-04-16T08:38:38.517Z,50.1
2018-04-16T08:39:29.414Z,50.1
2018-04-16T08:40:19.197Z,50.1
2018-04-16T08:41:09.549Z,50.1
2018-04-16T08:41:59.312Z,50.1
2018-04-16T08:42:49.369Z,50
2018-04-16T08:43:39.724Z,50
2018-04-16T08:44:29.515Z,50
2018-04-16T08:45:19.299Z,50
2018-04-16T08:46:09.346Z,50
2018-04-16T08:46:59.686Z,49.9
2018-04-16T08:47:49.494Z,49.9
2018-04-16T08:48:39.537Z,49.9
2018-04-16T08:49:29.886Z,49.9
2018-04-16T08:50:20.231Z,49.9
2018-04-16T08:51:09.721Z,49.9
2018-04-16T08:52:00.383Z,49.9
2018-04-16T08:52:50.416Z,49.9
2018-04-16T08:53:39.903Z,49.9
2018-04-16T08:54:29.971Z,49.8
2018-04-16T08:55:20.595Z,49.8
2018-04-16T08:56:10.659Z,49.8
2018-04-16T08:57:00.433Z,49.8
2018-04-16T08:57:50.520Z,49.8
2018-04-16T08:58:40.836Z,49.8
2018-04-16T08:59:30.912Z,49.8
2018-04-16T09:00:20.971Z,49.8
2018-04-16T09:01:11.050Z,49.8
2018-04-16T09:02:01.108Z,49.8
2018-04-16T09:02:51.161Z,49.7
2018-04-16T09:03:41.250Z,49.7
2018-04-16T09:04:31.290Z,49.7
2018-04-16T09:05:21.083Z,49.7
2018-04-16T09:06:11.450Z,49.6
2018-04-16T09:07:00.908Z,49.6
2018-04-16T09:07:51.267Z,49.6
2018-04-16T09:08:41.422Z,49.6
2018-04-16T09:09:31.700Z,49.6
2018-04-16T09:10:21.730Z,49.6
2018-04-16T09:11:11.808Z,49.6
2018-04-16T09:12:01.562Z,49.6
2018-04-16T09:12:51.373Z,49.6
2018-04-16T09:13:41.969Z,49.6
2018-04-16T09:14:31.250Z,49.5
2018-04-16T09:15:21.848Z,49.5
2018-04-16T09:16:11.625Z,49.5
2018-04-16T09:17:02.258Z,49.5
2018-04-16T09:17:52.307Z,49.4
2018-04-16T09:18:42.372Z,49.4
2018-04-16T09:19:32.434Z,49.4
2018-04-16T09:20:22.521Z,49.4
2018-04-16T09:21:12.305Z,49.4
2018-04-16T09:22:02.074Z,49.4
2018-04-16T09:22:52.420Z,49.4
2018-04-16T09:23:42.208Z,49.4
2018-04-16T09:24:32.234Z,49.4
2018-04-16T09:25:22.935Z,49.4
2018-04-16T09:26:12.647Z,49.4
2018-04-16T09:27:02.433Z,49.3
2018-04-16T09:27:52.310Z,49.3
2018-04-16T09:28:43.166Z,49.3
2018-04-16T09:29:32.934Z,49.3
2018-04-16T09:30:22.688Z,49.3
2018-04-16T09:31:13.041Z,49.3
2018-04-16T09:32:03.084Z,49.3
2018-04-16T09:32:52.857Z,49.3
2018-04-16T09:33:43.507Z,49.2
2018-04-16T09:34:33.287Z,49.2
2018-04-16T09:35:22.777Z,49.2
2018-04-16T09:36:13.701Z,49.2
2018-04-16T09:37:02.916Z,49.2
2018-04-16T09:37:53.635Z,49.2
2018-04-16T09:38:43.896Z,49.1
2018-04-16T09:39:32.961Z,49.1
2018-04-16T09:40:24.004Z,49.1
2018-04-16T09:41:14.048Z,49.1
2018-04-16T09:42:03.850Z,49.1
2018-04-16T09:42:53.906Z,49.1
2018-04-16T09:43:43.684Z,49.1
2018-04-16T09:44:33.477Z,49.1
2018-04-16T09:45:23.820Z,49.1
2018-04-16T09:46:14.225Z,49.1
2018-04-16T09:47:04.502Z,49
2018-04-16T09:47:54.586Z,49
2018-04-16T09:48:43.847Z,49
2018-04-16T09:49:34.420Z,49
2018-04-16T09:50:24.639Z,49
2018-04-16T09:51:14.575Z,48.9
2018-04-16T09:52:04.617Z,48.9
2018-04-16T09:52:54.665Z,48.9
2018-04-16T09:53:45.046Z,48.9
2018-04-16T09:54:34.798Z,48.9
2018-04-16T09:55:24.569Z,48.9
2018-04-16T09:56:14.938Z,48.9
2018-04-16T09:57:05.007Z,48.9
2018-04-16T09:57:54.771Z,48.9
2018-04-16T09:58:44.814Z,48.8
2018-04-16T09:59:34.871Z,48.9
2018-04-16T10:00:25.298Z,48.8
2018-04-16T10:01:15.291Z,48.8
2018-04-16T10:02:05.384Z,48.8
2018-04-16T10:02:55.752Z,48.8
2018-04-16T10:03:45.771Z,48.8
2018-04-16T10:04:35.805Z,48.8
2018-04-16T10:05:25.337Z,48.8
2018-04-16T10:06:15.381Z,48.8
2018-04-16T10:07:05.166Z,48.8
2018-04-16T10:07:55.828Z,48.8
2018-04-16T10:08:46.128Z,48.7
2018-04-16T10:09:36.196Z,48.7
2018-04-16T10:10:26.256Z,48.7
2018-04-16T10:11:16.332Z,48.7
2018-04-16T10:12:06.388Z,48.7
2018-04-16T10:12:56.160Z,48.7
2018-04-16T10:13:46.544Z,48.6
2018-04-16T10:14:36.575Z,48.6
2018-04-16T10:15:25.223Z,48.6
2018-04-16T10:16:16.687Z,48.6
2018-04-16T10:17:06.760Z,48.6
2018-04-16T10:17:56.282Z,48.6
2018-04-16T10:18:46.046Z,48.6
2018-04-16T10:19:37.001Z,48.6
2018-04-16T10:20:26.763Z,48.6
2018-04-16T10:21:16.788Z,48.5
2018-04-16T10:22:06.867Z,48.5
2018-04-16T10:22:56.937Z,48.5
2018-04-16T10:23:46.443Z,48.5
2018-04-16T10:24:37.338Z,48.5
2018-04-16T10:25:27.092Z,48.5
2018-04-16T10:26:16.896Z,48.4
2018-04-16T10:27:07.242Z,48.4
2018-04-16T10:27:57.314Z,48.4
2018-04-16T10:28:47.090Z,48.4
2018-04-16T10:29:37.147Z,48.4
2018-04-16T10:30:27.773Z,48.4
2018-04-16T10:31:16.994Z,48.4
2018-04-16T10:32:07.591Z,48.4
2018-04-16T10:32:57.451Z,48.4
2018-04-16T10:33:47.474Z,48.4
2018-04-16T10:34:37.520Z,48.3
2018-04-16T10:35:28.144Z,48.3
2018-04-16T10:36:17.909Z,48.3
2018-04-16T10:37:08.264Z,48.3
2018-04-16T10:37:57.767Z,48.3
2018-04-16T10:38:47.874Z,48.3
2018-04-16T10:39:38.484Z,48.3
2018-04-16T10:40:28.558Z,48.3
2018-04-16T10:41:18.599Z,48.3
2018-04-16T10:42:08.362Z,48.3
2018-04-16T10:42:57.871Z,48.3
2018-04-16T10:43:48.485Z,48.2
2018-04-16T10:44:38.276Z,48.2
2018-04-16T10:45:28.602Z,48.2
2018-04-16T10:46:18.951Z,48.2
2018-04-16T10:47:09.221Z,48.2
2018-04-16T10:47:59.002Z,48.1
2018-04-16T10:48:49.650Z,48.1
2018-04-16T10:49:39.489Z,48.1
2018-04-16T10:50:29.524Z,48.1
2018-04-16T10:51:19.847Z,48.1
2018-04-16T10:52:09.581Z,48.1
2018-04-16T10:52:59.655Z,48.1
2018-04-16T10:53:50.026Z,48.1
2018-04-16T10:54:39.795Z,48.1
2018-04-16T10:55:30.116Z,48.1
2018-04-16T10:56:19.936Z,48.1
2018-04-16T10:57:09.754Z,48.1
2018-04-16T10:58:00.309Z,48
2018-04-16T10:58:49.827Z,48
2018-04-16T10:59:40.413Z,48
2018-04-16T11:00:30.559Z,48
2018-04-16T11:01:20.595Z,48
2018-04-16T11:02:10.358Z,48
2018-04-16T11:02:59.855Z,47.9
2018-04-16T11:03:50.503Z,47.9
2018-04-16T11:04:40.840Z,47.9
2018-04-16T11:05:30.035Z,47.9
2018-04-16T11:06:21.080Z,47.9
2018-04-16T11:07:10.715Z,47.9
2018-04-16T11:08:00.220Z,47.9
2018-04-16T11:08:50.865Z,47.9
2018-04-16T11:09:40.937Z,47.9
2018-04-16T11:10:30.400Z,47.9
2018-04-16T11:11:20.760Z,47.9
2018-04-16T11:12:11.112Z,47.8
2018-04-16T11:13:01.466Z,47.8